Time;durP1;ratioP1;P1;durP2;ratioP2;P2;SDS_P1;SDS_P2;PMS_P1;PMS_P2;Temp;Humidity;BMP_temperature;BMP_pressure;BME280_temperature;BME280_humidity;BME280_pressure;Samples;Min_cycle;Max_cycle;Signal;HPM_P1;HPM_P2
2022/06/03 00:02:04;;;;;;;6.37;4.07;;;9.30;99.90;8.60;100867;;;;584386;241;24060;-78
2022/06/03 00:05:09;;;;;;;10.33;3.70;;;9.30;99.90;8.50;100860;;;;593708;241;24131;-78
2022/06/03 00:08:14;;;;;;;7.47;3.90;;;9.30;99.90;8.50;100857;;;;594257;241;24080;-82
2022/06/03 00:11:03;;;;;;;6.37;3.60;;;9.30;99.90;8.60;100870;;;;585040;241;24089;-84
2022/06/03 00:14:10;;;;;;;3.30;3.10;;;9.30;99.90;8.60;100866;;;;585206;241;24067;-82
2022/06/03 00:17:15;;;;;;;9.57;3.43;;;9.30;99.90;8.60;100869;;;;584862;241;24127;-84
2022/06/03 00:20:00;;;;;;;5.80;3.90;;;9.30;99.90;8.60;100864;;;;584838;241;24060;-81
2022/06/03 00:22:50;;;;;;;7.60;3.80;;;9.40;99.90;8.70;100880;;;;593582;241;24136;-78
2022/06/03 00:25:32;;;;;;;5.03;3.77;;;9.40;99.90;8.70;100878;;;;585322;241;24122;-77
2022/06/03 00:28:20;;;;;;;10.18;5.95;;;9.40;99.90;8.70;100871;;;;579159;241;35101;-80
2022/06/03 00:31:23;;;;;;;8.40;4.70;;;9.40;99.90;8.70;100873;;;;583876;241;24103;-79
2022/06/03 00:33:58;;;;;;;5.53;3.80;;;9.50;99.90;8.80;100879;;;;592365;234;24132;-77
2022/06/03 00:36:28;;;;;;;6.97;4.27;;;9.50;99.90;8.80;100873;;;;583480;241;24083;-77
2022/06/03 00:38:58;;;;;;;6.13;4.43;;;9.50;99.90;8.90;100871;;;;589438;241;24101;-77
2022/06/03 00:41:47;;;;;;;6.17;4.30;;;9.60;99.90;8.90;100880;;;;592531;241;24130;-78
2022/06/03 00:44:49;;;;;;;6.63;4.97;;;9.60;99.90;8.90;100869;;;;583863;241;24134;-76
2022/06/03 00:47:35;;;;;;;8.50;4.60;;;9.60;99.90;8.90;100875;;;;584000;241;24058;-76
2022/06/03 00:50:34;;;;;;;8.73;3.97;;;9.60;99.90;8.90;100878;;;;592765;238;24181;-77
2022/06/03 00:53:14;;;;;;;6.67;4.50;;;9.70;99.90;8.90;100882;;;;593105;241;24108;-79
2022/06/03 00:56:00;;;;;;;12.00;4.47;;;9.70;99.90;8.90;100875;;;;592308;238;24112;-77
2022/06/03 00:58:39;;;;;;;10.30;3.70;;;9.60;99.90;8.90;100893;;;;593161;241;24128;-77
2022/06/03 01:01:07;;;;;;;7.73;4.23;;;9.70;99.90;9.00;100880;;;;584066;241;24062;-77
2022/06/03 01:03:57;;;;;;;4.53;3.77;;;9.70;99.90;9.00;100879;;;;592878;239;24085;-78
2022/06/03 01:07:02;;;;;;;8.77;4.40;;;9.70;99.90;9.10;100880;;;;594592;241;24068;-78
2022/06/03 01:09:42;;;;;;;10.53;7.03;;;9.80;99.90;9.20;100881;;;;580222;241;35092;-83
2022/06/03 01:12:28;;;;;;;6.53;5.10;;;9.90;99.90;9.30;100887;;;;594387;241;24155;-77
2022/06/03 01:15:09;;;;;;;7.80;5.03;;;10.00;99.90;9.30;100878;;;;594301;238;24055;-77
2022/06/03 01:17:36;;;;;;;8.37;4.70;;;10.10;99.90;9.30;100884;;;;584869;241;24140;-81
2022/06/03 01:20:14;;;;;;;5.40;4.20;;;10.10;99.90;9.30;100889;;;;584188;241;24121;-78
2022/06/03 01:23:06;;;;;;;6.87;4.17;;;10.10;99.90;9.40;100876;;;;584747;241;24124;-82
2022/06/03 01:25:43;;;;;;;4.23;3.83;;;10.10;99.90;9.40;100889;;;;593934;241;24043;-78
2022/06/03 01:28:39;;;;;;;7.90;4.50;;;10.30;99.90;9.50;100888;;;;593382;241;24064;-77
2022/06/03 01:31:44;;;;;;;11.17;4.37;;;10.20;99.90;9.60;100886;;;;593862;241;24066;-80
2022/06/03 01:34:45;;;;;;;7.17;4.70;;;10.40;99.90;9.70;100885;;;;584949;241;24108;-76
2022/06/03 01:37:33;;;;;;;4.77;4.23;;;10.50;99.90;9.80;100889;;;;593167;241;24095;-76
2022/06/03 01:40:25;;;;;;;6.93;4.13;;;10.60;99.90;9.90;100886;;;;592899;238;24123;-76
2022/06/03 01:43:00;;;;;;;3.87;3.57;;;10.70;99.90;10.00;100881;;;;584468;241;24069;-76
2022/06/03 01:45:54;;;;;;;8.13;3.80;;;10.70;99.90;10.00;100884;;;;584117;241;24049;-77
2022/06/03 01:48:45;;;;;;;4.63;3.80;;;10.70;99.90;10.00;100884;;;;592800;241;25126;-76
2022/06/03 01:51:47;;;;;;;6.70;3.87;;;10.80;99.90;10.10;100887;;;;590582;241;24081;-75
2022/06/03 01:54:41;;;;;;;4.30;3.87;;;10.80;99.90;10.10;100885;;;;591146;241;24116;-77
2022/06/03 01:57:39;;;;;;;4.63;3.87;;;10.80;99.90;10.10;100884;;;;590283;241;26259;-76
2022/06/03 02:00:32;;;;;;;5.43;3.70;;;10.80;99.90;10.10;100885;;;;591269;238;24083;-80
2022/06/03 02:03:30;;;;;;;8.00;4.23;;;10.90;99.90;10.20;100880;;;;583977;241;24065;-78
2022/06/03 02:06:37;;;;;;;5.90;3.33;;;10.90;99.90;10.30;100889;;;;581692;241;24064;-81
2022/06/03 02:09:17;;;;;;;5.13;4.07;;;11.00;99.90;10.30;100887;;;;590238;241;24090;-79
2022/06/03 02:12:15;;;;;;;4.07;3.37;;;11.10;99.90;10.40;100885;;;;583932;241;24079;-82
2022/06/03 02:15:23;;;;;;;5.53;4.40;;;11.10;99.90;10.40;100892;;;;593078;241;24097;-76
2022/06/03 02:17:59;;;;;;;5.00;3.93;;;11.20;99.90;10.50;100889;;;;592002;241;24110;-77
2022/06/03 02:20:58;;;;;;;5.13;3.80;;;11.20;99.90;10.50;100889;;;;593984;241;24103;-77
2022/06/03 02:23:31;;;;;;;7.45;5.30;;;11.30;99.90;10.60;100889;;;;587850;241;35122;-77
2022/06/03 02:26:06;;;;;;;10.47;4.47;;;11.30;99.90;10.60;100884;;;;592686;241;24106;-76
2022/06/03 02:32:15;;;;;;;5.37;3.90;;;11.40;99.90;10.60;100894;;;;591218;239;24098;-76
2022/06/03 02:35:16;;;;;;;7.03;3.80;;;11.40;99.90;10.60;100889;;;;584942;241;24075;-76
2022/06/03 02:37:59;;;;;;;5.30;3.80;;;11.30;99.90;10.40;100889;;;;590949;241;24056;-76
2022/06/03 02:40:35;;;;;;;4.63;3.80;;;11.20;99.90;10.30;100904;;;;582104;241;24067;-75
2022/06/03 02:43:46;;;;;;;3.70;3.40;;;11.10;99.90;10.30;100899;;;;592479;241;24091;-76
2022/06/03 02:46:35;;;;;;;3.57;3.10;;;11.00;99.90;10.20;100904;;;;594719;241;24064;-76
2022/06/03 02:49:33;;;;;;;3.87;3.57;;;10.90;99.90;10.30;100896;;;;590040;241;24089;-77
2022/06/03 02:52:29;;;;;;;5.97;3.20;;;11.00;99.90;10.30;100902;;;;592616;238;24062;-79
2022/06/03 02:55:34;;;;;;;7.07;3.83;;;11.00;99.90;10.40;100898;;;;592509;238;24075;-76
2022/06/03 02:58:34;;;;;;;3.60;3.30;;;11.10;99.90;10.40;100903;;;;583977;241;24052;-77
2022/06/03 03:01:04;;;;;;;5.63;3.50;;;11.10;99.90;10.40;100901;;;;568918;251;24165;-77
2022/06/03 03:03:49;;;;;;;5.67;3.40;;;11.10;99.90;10.40;100900;;;;575898;245;24246;-77
2022/06/03 03:06:40;;;;;;;3.70;3.40;;;11.10;99.90;10.30;100903;;;;585777;241;24059;-82
2022/06/03 03:09:25;;;;;;;3.83;3.30;;;11.10;99.90;10.40;100903;;;;590134;241;24065;-76
2022/06/03 03:12:27;;;;;;;7.13;4.07;;;11.20;99.90;10.50;100897;;;;592365;238;24094;-77
2022/06/03 03:15:13;;;;;;;6.83;3.43;;;11.10;99.90;10.70;100898;;;;593107;241;24092;-77
2022/06/03 03:18:02;;;;;;;7.97;4.37;;;11.30;99.90;10.90;100885;;;;584461;241;24075;-77
2022/06/03 03:21:06;;;;;;;4.10;3.80;;;11.50;99.90;11.20;100893;;;;592740;238;24112;-77
2022/06/03 03:23:50;;;;;;;6.53;3.87;;;11.80;99.90;11.30;100897;;;;592986;241;24057;-79
2022/06/03 03:26:29;;;;;;;5.65;4.32;;;11.90;99.90;11.20;100908;;;;566731;247;35343;-77
2022/06/03 03:29:06;;;;;;;6.97;4.47;;;11.90;99.90;11.10;100901;;;;579319;243;24070;-78
2022/06/03 03:31:50;;;;;;;5.43;3.67;;;11.70;99.90;11.00;100905;;;;575775;241;24094;-77
2022/06/03 03:34:23;;;;;;;7.20;3.63;;;11.70;99.90;10.90;100904;;;;583118;241;24070;-78
2022/06/03 03:37:37;;;;;;;5.53;3.57;;;11.70;99.90;10.90;100903;;;;590109;241;24089;-78
2022/06/03 03:40:42;;;;;;;5.10;3.90;;;11.60;99.90;11.20;100901;;;;591638;241;24045;-82
2022/06/03 03:43:25;;;;;;;5.13;3.70;;;11.80;99.90;12.40;100905;;;;591717;241;24104;-80
2022/06/03 03:46:20;;;;;;;6.10;3.30;;;12.80;99.90;12.90;100909;;;;584613;245;24134;-82
2022/06/03 03:49:22;;;;;;;5.60;3.20;;;13.70;99.90;12.90;100912;;;;585340;241;24053;-76
2022/06/03 03:52:01;;;;;;;5.30;3.23;;;13.70;99.90;12.80;100916;;;;591241;241;24128;-79
2022/06/03 03:54:41;;;;;;;4.70;3.50;;;13.60;99.90;12.70;100915;;;;583835;241;24112;-76
2022/06/03 03:57:34;;;;;;;8.80;3.53;;;13.50;99.90;12.60;100918;;;;580508;241;24124;-75
2022/06/03 04:00:05;;;;;;;7.90;4.10;;;13.40;99.90;12.60;100918;;;;586311;241;35155;-77
2022/06/03 04:02:45;;;;;;;5.63;2.87;;;13.40;99.90;12.70;100922;;;;593160;241;24069;-77
2022/06/03 04:05:40;;;;;;;6.93;2.93;;;13.40;99.90;12.70;100916;;;;585285;241;24115;-82
2022/06/03 04:08:32;;;;;;;5.60;3.40;;;13.40;99.90;12.80;100919;;;;594119;241;24057;-78
2022/06/03 04:11:25;;;;;;;3.73;3.40;;;13.50;99.90;12.70;100926;;;;594262;241;24158;-79
2022/06/03 04:14:11;;;;;;;3.70;3.13;;;13.50;99.90;12.70;100916;;;;582892;241;24048;-76
2022/06/03 04:17:05;;;;;;;4.70;3.83;;;13.50;99.90;12.80;100928;;;;582429;241;24061;-79
2022/06/03 04:19:42;;;;;;;5.87;2.90;;;13.50;99.90;12.80;100935;;;;585047;241;24064;-77
2022/06/03 04:22:15;;;;;;;4.03;3.57;;;13.50;99.90;12.90;100938;;;;590167;241;24110;-76
2022/06/03 04:25:16;;;;;;;5.00;3.77;;;13.60;99.90;12.90;100934;;;;593404;238;24076;-80
2022/06/03 04:28:05;;;;;;;6.70;3.60;;;13.60;99.90;13.00;100946;;;;591289;241;24022;-81
2022/06/03 04:30:57;;;;;;;4.00;2.97;;;13.70;99.90;13.10;100950;;;;590794;241;24061;-83
2022/06/03 04:33:52;;;;;;;6.90;3.27;;;13.70;99.90;13.10;100933;;;;585159;241;24068;-80
2022/06/03 04:36:44;;;;;;;6.80;3.30;;;13.80;99.90;13.30;100942;;;;591930;241;24388;-78
2022/06/03 04:39:40;;;;;;;5.23;3.40;;;13.90;99.90;13.40;100941;;;;575195;241;24135;-79
2022/06/03 04:42:48;;;;;;;7.57;3.20;;;14.10;99.90;13.80;100937;;;;593818;241;24155;-81
2022/06/03 04:45:20;;;;;;;3.97;3.20;;;14.30;99.90;14.10;100941;;;;591943;241;24033;-78
2022/06/03 04:47:49;;;;;;;4.77;3.40;;;14.70;99.90;14.60;100936;;;;585083;241;24059;-78
2022/06/03 04:50:48;;;;;;;4.30;3.23;;;15.10;99.90;15.60;100944;;;;584670;241;24071;-82
2022/06/03 04:53:28;;;;;;;5.27;3.07;;;16.10;99.90;16.40;100946;;;;580741;241;24052;-83
2022/06/03 04:56:29;;;;;;;7.33;3.00;;;17.00;99.90;17.90;100948;;;;592267;241;24066;-83
2022/06/03 04:59:37;;;;;;;4.20;3.10;;;18.40;99.90;20.40;100952;;;;593734;241;24140;-79
2022/06/03 05:02:37;;;;;;;4.47;2.80;;;20.80;99.90;22.90;100958;;;;576663;245;23099;-79
2022/06/03 05:05:17;;;;;;;4.63;3.10;;;23.50;99.90;25.10;100960;;;;583332;241;24136;-83
2022/06/03 05:08:19;;;;;;;5.90;3.30;;;25.90;99.90;26.80;100964;;;;584232;241;24046;-85
2022/06/03 05:11:27;;;;;;;9.30;3.17;;;29.10;83.00;28.00;100962;;;;590453;241;24128;-84
2022/06/03 05:14:29;;;;;;;5.87;3.03;;;28.90;82.00;29.40;100975;;;;591342;241;23066;-85
2022/06/03 05:17:03;;;;;;;5.50;2.75;;;30.40;71.90;30.60;100975;;;;593032;241;24061;-77
2022/06/03 05:19:31;;;;;;;6.80;2.78;;;31.60;62.90;30.80;100980;;;;581494;241;23087;-81
2022/06/03 05:22:11;;;;;;;6.40;2.70;;;32.00;59.60;29.40;100986;;;;583195;241;23090;-80
2022/06/03 05:25:15;;;;;;;10.80;3.25;;;31.10;58.80;28.50;100985;;;;586877;241;23059;-83
2022/06/03 05:28:13;;;;;;;4.28;2.40;;;29.90;60.40;28.80;100976;;;;584286;241;23100;-80
2022/06/03 05:31:02;;;;;;;9.82;3.08;;;29.80;61.90;30.00;100984;;;;592887;241;23074;-83
2022/06/03 05:33:52;;;;;;;3.45;2.40;;;32.10;57.20;31.60;100994;;;;584327;241;24064;-78
2022/06/03 05:36:44;;;;;;;5.10;2.58;;;32.10;57.20;32.10;100993;;;;567861;247;24184;-84
2022/06/03 05:39:39;;;;;;;8.77;2.50;;;32.80;55.40;32.30;100991;;;;583869;241;23096;-77
2022/06/03 05:42:40;;;;;;;4.80;2.30;;;33.20;54.50;32.20;100995;;;;581904;241;23077;-80
2022/06/03 05:45:35;;;;;;;3.47;2.30;;;33.20;53.00;30.20;100999;;;;592479;238;23080;-77
2022/06/03 05:48:24;;;;;;;4.70;2.15;;;31.60;53.60;30.40;101000;;;;584355;241;23096;-77
2022/06/03 05:51:17;;;;;;;2.58;2.10;;;30.70;55.10;29.60;101012;;;;590414;241;24084;-76
2022/06/03 05:54:19;;;;;;;3.28;2.35;;;30.70;55.10;28.80;101006;;;;594402;241;23066;-79
2022/06/03 05:57:29;;;;;;;2.37;2.10;;;29.80;55.80;28.50;101007;;;;584666;241;23157;-76
2022/06/03 06:00:15;;;;;;;6.10;2.58;;;29.30;55.40;28.30;101013;;;;575725;245;23114;-77
2022/06/03 06:02:57;;;;;;;8.20;2.47;;;29.00;55.40;27.90;101006;;;;569980;246;23155;-76
2022/06/03 06:05:51;;;;;;;5.83;2.40;;;29.60;55.90;29.30;101012;;;;583492;241;24078;-78
2022/06/03 06:08:25;;;;;;;6.45;2.05;;;29.60;55.90;29.90;101017;;;;591217;241;23062;-77
2022/06/03 06:11:08;;;;;;;4.82;2.30;;;30.30;54.50;29.40;101014;;;;592870;241;23132;-76
2022/06/03 06:14:13;;;;;;;4.25;2.45;;;30.10;53.50;28.30;101017;;;;592914;241;23093;-78
2022/06/03 06:16:41;;;;;;;5.37;2.50;;;29.30;54.50;28.50;101020;;;;593332;241;23118;-77
2022/06/03 06:19:11;;;;;;;8.07;2.30;;;29.10;56.00;27.90;101019;;;;593328;238;23091;-78
2022/06/03 06:22:10;;;;;;;5.80;2.67;;;27.70;56.90;26.80;101016;;;;592786;241;23107;-77
2022/06/03 06:24:56;;;;;;;4.57;2.67;;;27.70;56.80;25.80;101020;;;;578857;241;23061;-78
2022/06/03 06:27:57;;;;;;;3.33;2.47;;;26.70;58.70;25.10;101015;;;;593101;238;23102;-78
2022/06/03 06:30:37;;;;;;;4.43;2.60;;;25.90;60.60;24.00;101014;;;;590580;241;24139;-79
2022/06/03 06:33:15;;;;;;;5.23;2.40;;;24.00;64.20;23.20;101016;;;;574729;241;24138;-76
2022/06/03 06:36:10;;;;;;;4.27;2.23;;;23.90;64.20;22.70;101019;;;;592209;241;24086;-78
2022/06/03 06:39:15;;;;;;;2.30;2.10;;;23.40;66.50;22.50;101014;;;;592271;238;24121;-78
2022/06/03 06:42:05;;;;;;;4.80;2.30;;;23.10;68.00;23.30;101015;;;;590624;241;25169;-78
2022/06/03 06:44:37;;;;;;;3.90;1.97;;;25.90;64.30;26.10;101020;;;;592621;241;24051;-76
2022/06/03 06:47:20;;;;;;;2.17;1.63;;;27.90;59.40;28.20;101017;;;;583848;241;23085;-76
2022/06/03 06:50:27;;;;;;;3.53;2.07;;;27.90;59.40;30.30;101018;;;;582294;241;23079;-76
2022/06/03 06:53:13;;;;;;;5.47;1.77;;;30.30;55.60;31.30;101026;;;;582906;241;23103;-76
2022/06/03 06:56:01;;;;;;;2.97;1.60;;;31.60;53.20;33.70;101034;;;;584248;240;24132;-76
2022/06/03 06:59:12;;;;;;;2.87;2.22;;;33.60;51.10;33.80;101032;;;;584548;241;23059;-82
2022/06/03 07:01:42;;;;;;;4.85;2.10;;;34.40;47.20;33.10;101028;;;;564946;248;23136;-79
2022/06/03 07:04:19;;;;;;;2.60;2.12;;;33.90;47.70;31.60;101025;;;;571259;247;23152;-83
2022/06/03 07:06:55;;;;;;;3.55;2.08;;;33.00;47.70;30.10;101019;;;;577657;244;23121;-78
2022/06/03 07:09:33;;;;;;;4.10;2.25;;;30.70;51.10;29.70;101014;;;;590914;239;23071;-79
2022/06/03 07:12:13;;;;;;;5.78;2.22;;;30.60;51.10;29.30;101021;;;;592731;241;24123;-82
2022/06/03 07:14:41;;;;;;;3.12;1.75;;;30.10;51.80;30.80;101024;;;;590453;241;23122;-80
2022/06/03 07:20:22;;;;;;;3.28;1.85;;;32.50;49.70;35.00;101015;;;;593011;241;23249;-77
2022/06/03 07:22:56;;;;;;;4.12;2.10;;;34.90;47.10;36.80;101010;;;;587402;238;35079;-79
2022/06/03 07:25:30;;;;;;;3.90;1.95;;;36.90;44.70;38.00;101011;;;;592754;241;23127;-77
2022/06/03 07:28:10;;;;;;;2.37;1.85;;;38.20;42.30;38.50;101015;;;;590055;241;23132;-77
2022/06/03 07:30:44;;;;;;;3.55;2.08;;;39.60;40.40;39.10;101021;;;;587827;241;24122;-79
2022/06/03 07:33:30;;;;;;;5.75;2.15;;;39.40;40.20;40.10;101032;;;;583875;241;23093;-83
2022/06/03 07:36:07;;;;;;;4.20;2.20;;;40.40;40.20;40.00;101028;;;;588944;241;23099;-80
2022/06/03 07:38:45;;;;;;;2.67;1.85;;;40.50;39.70;40.30;101024;;;;592480;237;23116;-78
2022/06/03 07:41:17;;;;;;;6.32;1.90;;;41.00;39.00;40.00;101023;;;;592910;241;23063;-77
2022/06/03 07:43:49;;;;;;;4.00;1.98;;;41.30;38.70;40.90;101023;;;;592209;238;23079;-78
2022/06/03 07:46:26;;;;;;;4.25;2.00;;;41.20;38.60;40.00;101027;;;;591931;241;23056;-78
2022/06/03 07:48:54;;;;;;;3.17;1.90;;;40.90;38.00;37.40;101027;;;;592530;241;23071;-77
2022/06/03 07:51:22;;;;;;;2.40;1.90;;;39.20;38.50;34.70;101029;;;;593554;241;23071;-79
2022/06/03 07:54:04;;;;;;;2.28;1.83;;;36.80;40.20;32.90;101024;;;;592955;238;23074;-79
2022/06/03 07:56:32;;;;;;;3.95;2.10;;;34.60;42.60;31.40;101028;;;;593031;241;23078;-76
2022/06/03 07:59:01;;;;;;;4.20;2.03;;;32.80;44.40;30.30;101030;;;;593030;241;24157;-76
2022/06/03 08:01:34;;;;;;;2.22;1.80;;;31.40;46.30;29.30;101031;;;;583746;241;24085;-77
2022/06/03 08:04:05;;;;;;;2.53;1.77;;;30.20;47.80;30.40;101027;;;;584117;241;23079;-78
2022/06/03 08:10:56;;;;;;;2.03;1.50;;;30.40;49.30;32.70;101033;;;;592515;241;23106;-75
2022/06/03 08:11:46;;;;;;;2.12;1.65;;;34.30;45.00;36.00;101038;;;;593045;241;23090;-76
2022/06/03 08:14:14;;;;;;;6.00;1.95;;;36.00;42.50;36.70;101043;;;;579785;241;35098;-78
2022/06/03 08:16:42;;;;;;;5.00;1.70;;;37.00;40.90;36.50;101045;;;;594509;241;23070;-80
2022/06/03 08:19:12;;;;;;;2.62;1.70;;;37.10;40.70;35.00;101037;;;;593836;241;23129;-77
2022/06/03 08:22:01;;;;;;;4.55;1.70;;;36.20;39.80;35.50;101043;;;;593622;237;23115;-76
2022/06/03 08:24:38;;;;;;;2.62;1.90;;;36.00;40.60;37.10;101045;;;;583270;241;23095;-78
2022/06/03 08:27:03;;;;;;;4.40;1.95;;;37.30;40.70;38.70;101044;;;;591098;238;23162;-76
2022/06/03 08:29:49;;;;;;;3.40;1.73;;;38.70;39.60;39.80;101043;;;;581724;241;23090;-81
2022/06/03 08:32:20;;;;;;;1.98;1.75;;;40.00;37.90;39.70;101041;;;;585150;241;23106;-79
2022/06/03 08:34:51;;;;;;;4.12;1.80;;;40.30;36.70;39.60;101048;;;;593167;241;23064;-77
2022/06/03 08:37:19;;;;;;;3.50;1.92;;;40.50;36.80;38.70;101048;;;;590957;241;23079;-80
2022/06/03 08:39:49;;;;;;;1.87;1.25;;;39.90;37.30;38.40;101044;;;;593778;238;23156;-80
2022/06/03 08:42:36;;;;;;;4.22;1.65;;;39.30;37.20;38.90;101045;;;;593389;241;23086;-78
2022/06/03 08:45:12;;;;;;;5.25;1.50;;;39.60;37.30;37.80;101040;;;;590586;239;23083;-77
2022/06/03 08:47:56;;;;;;;3.30;1.87;;;38.20;37.80;37.00;101040;;;;577262;247;23101;-79
2022/06/03 08:50:30;;;;;;;2.03;1.37;;;38.10;37.70;38.40;101038;;;;584041;241;23084;-77
2022/06/03 08:53:04;;;;;;;2.78;1.75;;;38.90;37.50;38.10;101040;;;;591841;241;23072;-77
2022/06/03 08:55:47;;;;;;;3.05;1.80;;;38.80;37.40;37.60;101029;;;;592854;241;24114;-79
2022/06/03 08:58:30;;;;;;;1.80;1.50;;;38.40;37.90;39.10;101035;;;;590269;241;24084;-77
2022/06/03 09:01:07;;;;;;;1.80;1.55;;;39.40;38.10;39.70;101037;;;;583888;241;23079;-78
2022/06/03 09:03:34;;;;;;;4.75;2.05;;;40.20;36.50;40.80;101032;;;;582476;241;23064;-78
2022/06/03 09:06:12;;;;;;;3.03;1.80;;;41.20;36.40;42.10;101028;;;;583680;241;23060;-78
2022/06/03 09:08:44;;;;;;;2.47;1.52;;;42.60;35.40;42.80;101036;;;;590899;241;23095;-78
2022/06/03 09:11:21;;;;;;;1.60;1.50;;;43.40;34.30;43.20;101035;;;;591585;241;23133;-82
2022/06/03 09:13:56;;;;;;;1.95;1.77;;;43.70;32.70;42.30;101047;;;;579342;247;24136;-79
2022/06/03 09:16:25;;;;;;;4.70;1.58;;;43.70;32.60;41.80;101041;;;;583989;241;23078;-78
2022/06/03 09:19:00;;;;;;;3.62;1.77;;;43.10;33.30;42.60;101031;;;;593246;241;23120;-81
2022/06/03 09:21:28;;;;;;;4.00;1.73;;;43.40;34.00;43.60;101031;;;;590270;238;23066;-78
2022/06/03 09:23:56;;;;;;;1.75;1.50;;;44.30;33.60;44.80;101036;;;;592743;238;23082;-77
2022/06/03 09:26:31;;;;;;;2.35;1.70;;;45.50;33.60;46.10;101031;;;;594183;238;23112;-77
2022/06/03 09:28:57;;;;;;;2.97;1.65;;;46.80;32.00;46.50;101037;;;;594097;241;23052;-78
2022/06/03 09:31:25;;;;;;;3.50;1.90;;;47.60;31.00;46.40;101031;;;;593925;241;23088;-77
2022/06/03 09:33:53;;;;;;;2.50;1.80;;;47.80;30.70;45.90;101035;;;;593559;241;23084;-77
2022/06/03 09:36:23;;;;;;;3.58;2.33;;;47.50;31.20;45.80;101032;;;;593481;241;23063;-78
2022/06/03 09:38:49;;;;;;;5.50;2.40;;;47.20;31.40;46.10;101034;;;;593228;241;23064;-77
2022/06/03 09:41:20;;;;;;;2.85;2.03;;;47.40;31.50;47.30;101029;;;;593141;238;23094;-80
2022/06/03 09:43:48;;;;;;;1.73;1.50;;;48.30;30.30;47.60;101024;;;;592860;241;23080;-81
2022/06/03 09:46:16;;;;;;;3.97;1.80;;;48.90;29.40;47.80;101033;;;;592949;241;23049;-86
2022/06/03 09:48:48;;;;;;;1.85;1.33;;;49.30;29.30;47.60;101028;;;;593756;237;23186;-79
2022/06/03 09:54:12;;;;;;;1.77;1.62;;;49.20;29.40;45.80;101040;;;;593601;241;23241;-81
2022/06/03 09:56:40;;;;;;;1.90;1.80;;;48.00;29.30;44.60;101035;;;;592982;238;23063;-83
2022/06/03 09:59:09;;;;;;;2.00;1.80;;;45.50;30.80;43.70;101039;;;;590481;241;23106;-81
2022/06/03 10:01:37;;;;;;;3.65;1.65;;;45.50;30.70;43.90;101036;;;;593186;241;23127;-78
2022/06/03 10:04:05;;;;;;;4.15;1.70;;;45.30;31.10;44.70;101035;;;;593446;241;23182;-82
2022/06/03 10:06:50;;;;;;;2.87;1.87;;;45.80;31.40;44.40;101038;;;;592966;241;23087;-79
2022/06/03 10:17:48;;;;;;;2.30;1.45;;;46.30;29.90;44.20;101031;;;;589967;241;23074;-81
2022/06/03 10:20:16;;;;;;;2.50;1.50;;;46.00;30.00;44.10;101031;;;;593444;241;23055;-79
2022/06/03 10:22:48;;;;;;;3.47;1.65;;;45.70;30.90;44.10;101032;;;;584646;241;23067;-78
2022/06/03 10:25:15;;;;;;;2.12;1.58;;;45.60;30.20;44.10;101021;;;;593269;241;23060;-78
2022/06/03 10:27:43;;;;;;;2.00;1.50;;;45.40;30.90;43.80;101025;;;;593462;241;23075;-78
2022/06/03 10:30:11;;;;;;;3.25;1.87;;;45.30;30.70;42.90;101020;;;;593565;241;23057;-78
2022/06/03 10:32:39;;;;;;;4.60;1.80;;;44.60;31.70;42.10;101027;;;;593189;238;23079;-78
2022/06/03 10:35:13;;;;;;;2.35;2.05;;;43.70;32.00;41.40;101034;;;;584635;241;23076;-77
2022/06/03 10:37:38;;;;;;;3.90;1.62;;;43.00;32.70;40.70;101028;;;;594233;240;23125;-78
2022/06/03 10:40:06;;;;;;;1.90;1.80;;;42.00;32.70;39.20;101032;;;;594269;241;23060;-78
2022/06/03 10:42:36;;;;;;;2.80;1.58;;;40.50;32.80;37.80;101029;;;;580930;246;24103;-77
2022/06/03 10:45:02;;;;;;;2.58;1.90;;;38.80;34.90;36.70;101026;;;;585294;241;23085;-76
2022/06/03 10:47:34;;;;;;;1.95;1.65;;;36.00;37.30;35.50;101020;;;;594493;241;23158;-75
2022/06/03 10:50:02;;;;;;;2.42;1.60;;;35.90;37.20;34.20;101018;;;;593709;241;23084;-77
2022/06/03 11:01:09;;;;;;;2.87;1.90;;;29.90;44.40;29.60;101011;;;;593094;241;23073;-74
2022/06/03 11:03:37;;;;;;;1.60;1.48;;;29.20;45.50;29.00;101007;;;;584115;242;24033;-76
2022/06/03 11:06:06;;;;;;;2.13;1.63;;;29.00;45.30;28.40;101004;;;;584480;242;24135;-80
2022/06/03 11:08:51;;;;;;;2.27;2.07;;;28.60;45.80;27.80;101003;;;;584446;242;23043;-78
2022/06/03 11:11:42;;;;;;;2.20;2.00;;;28.10;46.90;27.10;101009;;;;584473;242;23051;-81
2022/06/03 11:14:23;;;;;;;2.07;1.80;;;27.40;47.10;26.50;101003;;;;584208;242;23072;-78
2022/06/03 11:16:51;;;;;;;3.07;1.60;;;26.80;48.10;26.40;100996;;;;583988;242;23042;-76
2022/06/03 11:19:22;;;;;;;3.07;1.83;;;26.50;49.70;26.30;100995;;;;592592;239;23032;-77
2022/06/03 11:21:47;;;;;;;2.63;2.00;;;26.40;50.20;26.10;101002;;;;583901;242;23044;-78
2022/06/03 11:24:15;;;;;;;2.10;1.90;;;26.10;51.20;25.90;100990;;;;584362;242;24026;-77
2022/06/03 11:26:44;;;;;;;1.90;1.80;;;26.00;51.20;25.70;101000;;;;584493;242;23058;-76
2022/06/03 11:29:15;;;;;;;1.83;1.73;;;25.90;51.10;25.50;100990;;;;584205;242;23040;-75
2022/06/03 11:31:43;;;;;;;1.83;1.73;;;25.80;51.20;25.30;100984;;;;593309;237;24104;-75
2022/06/03 11:34:41;;;;;;;2.13;2.03;;;25.60;52.50;25.30;100994;;;;584335;242;23034;-77
2022/06/03 11:37:20;;;;;;;2.20;2.00;;;25.60;52.80;25.10;100987;;;;579196;242;34859;-75
2022/06/03 11:40:04;;;;;;;2.30;1.97;;;25.30;52.20;24.90;100983;;;;584254;242;24012;-76
2022/06/03 11:42:50;;;;;;;1.53;1.47;;;25.30;52.20;25.00;100970;;;;583839;242;24016;-79
2022/06/03 11:45:20;;;;;;;4.10;1.57;;;25.40;53.10;25.10;100974;;;;583870;242;23040;-78
2022/06/03 11:48:16;;;;;;;10.33;2.40;;;25.40;52.40;24.90;100971;;;;583665;240;23039;-77
2022/06/03 11:50:43;;;;;;;4.17;2.67;;;25.30;51.60;24.70;100976;;;;593136;238;23055;-75
2022/06/03 11:53:11;;;;;;;1.90;1.77;;;25.10;52.70;24.80;100973;;;;604310;237;24065;-75
2022/06/03 11:55:42;;;;;;;3.20;1.70;;;25.10;53.40;24.80;100975;;;;594769;238;24117;-76
2022/06/03 11:58:16;;;;;;;2.20;2.00;;;25.20;53.60;24.80;100975;;;;594608;238;24035;-76
2022/06/03 12:00:44;;;;;;;3.13;1.83;;;25.10;53.10;24.60;100970;;;;592795;238;24078;-76
2022/06/03 12:03:37;;;;;;;3.17;2.10;;;25.00;53.00;24.40;100963;;;;594465;238;24023;-77
2022/06/03 12:06:16;;;;;;;2.20;1.90;;;24.90;52.50;24.50;100973;;;;592974;238;23053;-82
2022/06/03 12:08:56;;;;;;;2.00;1.90;;;24.90;53.50;24.60;100960;;;;593925;238;24011;-80
2022/06/03 12:14:37;;;;;;;2.10;1.90;;;25.10;53.40;24.80;100951;;;;594192;238;24046;-77
2022/06/03 12:17:12;;;;;;;2.10;1.90;;;25.30;52.10;24.80;100952;;;;593908;238;23041;-76
2022/06/03 12:19:46;;;;;;;4.63;2.50;;;25.20;52.00;24.70;100969;;;;593919;238;23074;-76
2022/06/03 12:22:32;;;;;;;7.77;3.43;;;25.20;53.20;24.40;100974;;;;593847;238;24023;-80
2022/06/03 12:25:02;;;;;;;10.53;3.97;;;25.00;56.90;24.10;100966;;;;593589;238;24058;-77
2022/06/03 12:27:39;;;;;;;10.13;3.47;;;24.70;59.10;23.50;100959;;;;593449;238;23123;-78
2022/06/03 12:30:14;;;;;;;7.90;3.60;;;24.30;59.80;23.00;100960;;;;593507;238;24031;-77
2022/06/03 12:32:53;;;;;;;10.97;3.67;;;23.70;61.40;22.50;100953;;;;593970;238;24162;-78
2022/06/03 12:35:47;;;;;;;12.17;4.40;;;23.30;63.70;21.80;100948;;;;589246;238;24054;-81
2022/06/03 12:38:20;;;;;;;6.13;3.23;;;22.20;67.10;21.40;100947;;;;593814;238;24052;-77
2022/06/03 12:40:48;;;;;;;11.23;3.93;;;22.20;67.10;21.10;100958;;;;594086;238;23030;-82
2022/06/03 12:43:47;;;;;;;4.77;3.67;;;21.80;68.40;20.90;100959;;;;593472;238;23050;-77
2022/06/03 12:46:36;;;;;;;6.53;3.73;;;21.60;69.00;20.60;100959;;;;602856;238;24016;-76
2022/06/03 12:49:04;;;;;;;5.20;3.40;;;21.30;70.20;20.20;100948;;;;593311;238;24043;-76
2022/06/03 12:51:33;;;;;;;5.13;3.53;;;20.60;72.30;20.00;100952;;;;593055;238;24024;-76
2022/06/03 12:54:17;;;;;;;6.40;3.80;;;20.50;73.50;19.80;100945;;;;592594;238;24047;-79